Time;durP1;ratioP1;P1;durP2;ratioP2;P2;SDS_P1;SDS_P2;PMS_P1;PMS_P2;Temp;Humidity;BMP_temperature;BMP_pressure;BME280_temperature;BME280_humidity;BME280_pressure;Samples;Min_cycle;Max_cycle;Signal;HPM_P1;HPM_P2
2022/06/20 00:00:47;;;;;;;29.43;13.50;;;22.30;64.90;;;;;;4968353;28;20283;-62
2022/06/20 00:03:31;;;;;;;21.60;13.40;;;22.20;65.20;;;;;;4979763;28;20176;-63
2022/06/20 00:05:57;;;;;;;20.90;12.60;;;22.10;65.50;;;;;;4984344;28;20530;-64
2022/06/20 00:08:23;;;;;;;20.13;12.07;;;22.10;66.20;;;;;;4981338;28;20444;-62
2022/06/20 00:10:51;;;;;;;26.80;13.00;;;22.00;66.60;;;;;;4990499;28;20675;-63
2022/06/20 00:13:31;;;;;;;31.20;13.77;;;22.00;67.30;;;;;;4988707;28;20272;-63
2022/06/20 00:16:00;;;;;;;28.27;13.83;;;21.90;67.80;;;;;;4971367;28;20428;-62
2022/06/20 00:18:30;;;;;;;28.70;13.10;;;21.90;68.30;;;;;;4980029;28;20969;-62
2022/06/20 00:20:55;;;;;;;20.03;13.10;;;21.90;68.90;;;;;;4998439;28;20551;-62
2022/06/20 00:23:22;;;;;;;23.60;13.47;;;21.80;69.20;;;;;;4979135;28;20515;-63
2022/06/20 00:25:48;;;;;;;22.43;13.40;;;21.80;69.90;;;;;;4989317;28;20690;-62
2022/06/20 00:28:16;;;;;;;22.93;13.80;;;21.80;70.50;;;;;;4988321;28;20436;-62
2022/06/20 00:30:42;;;;;;;21.83;13.47;;;21.80;70.30;;;;;;4999124;28;20458;-63
2022/06/20 00:33:10;;;;;;;30.93;14.50;;;21.80;70.30;;;;;;4979541;28;21158;-62
2022/06/20 00:35:36;;;;;;;24.47;13.67;;;21.80;70.80;;;;;;4993137;28;20783;-63
2022/06/20 00:38:04;;;;;;;23.50;14.00;;;21.80;71.40;;;;;;4996960;28;20845;-63
2022/06/20 00:40:30;;;;;;;26.90;14.60;;;21.80;71.70;;;;;;4976216;28;20498;-62
2022/06/20 00:42:57;;;;;;;38.83;14.07;;;21.90;71.70;;;;;;5008637;28;20431;-62
2022/06/20 00:45:25;;;;;;;20.73;13.80;;;21.90;71.90;;;;;;4989446;28;20188;-62
2022/06/20 00:47:52;;;;;;;30.20;14.37;;;21.90;72.40;;;;;;4985499;28;20421;-62
2022/06/20 00:50:26;;;;;;;29.30;13.43;;;21.80;72.90;;;;;;4977617;28;20449;-62
2022/06/20 00:53:01;;;;;;;28.40;15.23;;;21.80;72.10;;;;;;5009377;28;20427;-62
2022/06/20 00:55:44;;;;;;;23.60;13.73;;;21.80;71.70;;;;;;4996769;28;20424;-63
2022/06/20 00:58:26;;;;;;;23.00;12.40;;;21.70;71.60;;;;;;4998023;28;20510;-63
2022/06/20 01:00:51;;;;;;;24.87;13.73;;;21.60;71.90;;;;;;4976933;28;20963;-63
2022/06/20 01:03:24;;;;;;;28.20;14.37;;;21.60;72.40;;;;;;4997306;28;20421;-63
2022/06/20 01:05:56;;;;;;;22.87;13.37;;;21.60;73.10;;;;;;4990503;28;20165;-62
2022/06/20 01:08:32;;;;;;;21.97;12.77;;;21.50;73.90;;;;;;4973256;28;20425;-63
2022/06/20 01:11:11;;;;;;;21.60;14.37;;;21.50;74.20;;;;;;4994355;28;20498;-63
2022/06/20 01:13:37;;;;;;;25.87;13.87;;;21.50;74.30;;;;;;4990775;28;20432;-63
2022/06/20 01:16:15;;;;;;;22.67;13.60;;;21.40;75.10;;;;;;4993899;28;20436;-62
2022/06/20 01:18:43;;;;;;;25.07;13.17;;;21.30;76.60;;;;;;4976844;28;20675;-62
2022/06/20 01:21:16;;;;;;;22.87;12.73;;;21.30;78.00;;;;;;4994024;28;20497;-62
2022/06/20 01:23:58;;;;;;;27.07;14.13;;;21.20;78.40;;;;;;5001958;28;20495;-62
2022/06/20 01:26:51;;;;;;;27.63;14.50;;;21.20;78.40;;;;;;4985956;28;20443;-62
2022/06/20 01:29:17;;;;;;;22.30;14.20;;;21.20;78.70;;;;;;5007677;28;20419;-61
2022/06/20 01:31:51;;;;;;;22.23;13.33;;;21.10;78.70;;;;;;4999068;28;20433;-61
2022/06/20 01:34:18;;;;;;;21.53;13.53;;;21.10;78.50;;;;;;4995248;28;20982;-62
2022/06/20 01:39:35;;;;;;;20.73;13.17;;;21.00;78.80;;;;;;4973629;28;20935;-62
2022/06/20 01:42:21;;;;;;;20.60;12.63;;;20.90;79.50;;;;;;4973193;28;20851;-62
2022/06/20 01:44:58;;;;;;;25.93;13.60;;;20.90;79.70;;;;;;4990032;28;20424;-62
2022/06/20 01:47:24;;;;;;;27.67;14.47;;;20.90;80.10;;;;;;5006991;28;20401;-62
2022/06/20 01:49:55;;;;;;;25.77;13.70;;;20.90;80.70;;;;;;4984750;28;20463;-62
2022/06/20 01:52:30;;;;;;;25.07;13.73;;;20.80;81.20;;;;;;4987735;28;20618;-62
2022/06/20 01:55:18;;;;;;;24.23;13.93;;;20.80;81.40;;;;;;4994248;28;20398;-62
2022/06/20 01:57:48;;;;;;;25.07;14.70;;;20.70;82.30;;;;;;5011257;28;20936;-62
2022/06/20 02:00:17;;;;;;;21.50;13.27;;;20.70;83.20;;;;;;4998782;28;20830;-62
2022/06/20 02:02:51;;;;;;;21.33;14.13;;;20.70;83.80;;;;;;5000309;28;20495;-61
2022/06/20 02:05:22;;;;;;;30.47;14.00;;;20.60;84.40;;;;;;4988977;28;20420;-62
2022/06/20 02:07:47;;;;;;;24.37;14.07;;;20.60;85.70;;;;;;5001012;28;20473;-62
2022/06/20 02:10:19;;;;;;;16.77;13.00;;;20.60;86.50;;;;;;4990532;28;20432;-61
2022/06/20 02:12:46;;;;;;;27.33;13.10;;;20.60;86.20;;;;;;4994952;28;20192;-62
2022/06/20 02:15:19;;;;;;;20.43;12.50;;;20.70;86.20;;;;;;5003975;28;20428;-62
2022/06/20 02:17:48;;;;;;;24.07;13.33;;;20.70;86.00;;;;;;4983458;28;20469;-62
2022/06/20 02:20:19;;;;;;;18.80;13.47;;;20.70;84.20;;;;;;4995308;28;20470;-62
2022/06/20 02:22:46;;;;;;;25.53;12.90;;;20.80;83.60;;;;;;4982146;28;20896;-62
2022/06/20 02:25:17;;;;;;;21.80;13.40;;;20.70;82.40;;;;;;4981434;28;20446;-62
2022/06/20 02:27:48;;;;;;;19.47;13.17;;;20.70;83.30;;;;;;4984959;28;20867;-62
2022/06/20 02:30:15;;;;;;;25.30;13.10;;;20.70;84.10;;;;;;4982999;28;21037;-62
2022/06/20 02:32:47;;;;;;;27.87;12.57;;;20.60;84.50;;;;;;4982286;28;21071;-62
2022/06/20 02:35:18;;;;;;;26.77;12.93;;;20.60;85.00;;;;;;4983081;28;20941;-62
2022/06/20 02:37:45;;;;;;;25.13;12.67;;;20.60;85.80;;;;;;4999458;28;20447;-62
2022/06/20 02:40:14;;;;;;;18.23;12.60;;;20.60;86.20;;;;;;4988602;28;20508;-62
2022/06/20 02:42:44;;;;;;;25.50;13.07;;;20.50;86.80;;;;;;4987408;28;20433;-62
2022/06/20 02:45:11;;;;;;;22.53;13.50;;;20.50;87.30;;;;;;4969898;28;21071;-62
2022/06/20 02:47:47;;;;;;;27.97;14.43;;;20.40;87.60;;;;;;4987584;28;21017;-62
2022/06/20 02:50:18;;;;;;;23.30;13.30;;;20.40;88.50;;;;;;4976914;28;20542;-61
2022/06/20 02:52:55;;;;;;;22.90;13.70;;;20.40;89.30;;;;;;5000989;28;20427;-61
2022/06/20 02:55:22;;;;;;;28.80;12.53;;;20.40;88.50;;;;;;4989717;28;20496;-61
2022/06/20 02:57:59;;;;;;;25.03;13.27;;;20.40;88.90;;;;;;5000581;28;20478;-62
2022/06/20 03:00:37;;;;;;;22.57;13.43;;;20.40;89.70;;;;;;4989191;28;20467;-61
2022/06/20 03:03:10;;;;;;;22.23;13.23;;;20.30;90.50;;;;;;4988586;28;20413;-61
2022/06/20 03:05:38;;;;;;;22.57;13.77;;;20.30;90.50;;;;;;4982912;28;20519;-61
2022/06/20 03:08:04;;;;;;;17.27;12.87;;;20.30;90.20;;;;;;4996388;28;20407;-62
2022/06/20 03:10:40;;;;;;;23.60;12.93;;;20.30;90.60;;;;;;5000245;28;21093;-62
2022/06/20 03:13:07;;;;;;;25.17;12.97;;;20.20;90.90;;;;;;4988759;28;20436;-61
2022/06/20 03:15:35;;;;;;;18.80;11.80;;;20.30;91.30;;;;;;4981386;28;20475;-62
2022/06/20 03:18:01;;;;;;;18.20;12.03;;;20.20;91.30;;;;;;4986061;28;21143;-62
2022/06/20 03:20:27;;;;;;;20.50;11.80;;;20.30;91.20;;;;;;4984056;28;20646;-61
2022/06/20 03:23:03;;;;;;;20.57;9.90;;;20.30;90.80;;;;;;4999323;28;20184;-61
2022/06/20 03:25:29;;;;;;;19.63;10.80;;;20.30;87.70;;;;;;4986239;28;20479;-61
2022/06/20 03:27:55;;;;;;;20.20;11.90;;;20.40;81.90;;;;;;4988093;28;20436;-61
2022/06/20 03:30:27;;;;;;;18.77;11.23;;;20.60;81.40;;;;;;4972328;28;20509;-60
2022/06/20 03:32:53;;;;;;;17.40;11.30;;;20.70;81.10;;;;;;4981496;28;20192;-62
2022/06/20 03:35:20;;;;;;;22.40;9.20;;;20.80;78.80;;;;;;4978238;28;20776;-61
2022/06/20 03:37:46;;;;;;;15.70;6.90;;;20.90;70.50;;;;;;5001426;28;20435;-61
2022/06/20 03:40:12;;;;;;;11.10;6.57;;;21.10;63.80;;;;;;4999979;28;20509;-62
2022/06/20 03:42:38;;;;;;;20.47;9.20;;;21.40;61.60;;;;;;4989062;28;20170;-61
2022/06/20 03:45:07;;;;;;;13.73;6.63;;;21.70;59.50;;;;;;4998694;28;20442;-63
2022/06/20 03:47:54;;;;;;;11.83;5.90;;;21.90;58.30;;;;;;4991306;28;20925;-61
2022/06/20 03:50:29;;;;;;;20.23;6.03;;;22.10;56.50;;;;;;4973777;28;20505;-62
2022/06/20 03:53:19;;;;;;;14.27;5.67;;;22.30;55.40;;;;;;4964184;28;20429;-62
2022/06/20 03:56:05;;;;;;;16.73;5.30;;;22.60;53.40;;;;;;4984949;28;20854;-57
2022/06/20 03:58:36;;;;;;;13.33;5.60;;;22.80;52.90;;;;;;4983063;28;20438;-61
2022/06/20 04:01:10;;;;;;;20.80;6.00;;;23.00;51.50;;;;;;4979936;28;20497;-61
2022/06/20 04:03:44;;;;;;;14.80;5.23;;;23.20;51.30;;;;;;4986755;28;20431;-59
2022/06/20 04:06:25;;;;;;;13.80;5.40;;;23.40;51.30;;;;;;4981792;28;20909;-62
2022/06/20 04:12:17;;;;;;;15.43;5.30;;;23.40;51.80;;;;;;4981326;28;20455;-66
2022/06/20 04:15:01;;;;;;;11.43;5.33;;;23.50;52.00;;;;;;4987366;28;20488;-67
2022/06/20 04:20:42;;;;;;;18.33;4.93;;;23.40;51.90;;;;;;4975127;28;20475;-62
2022/06/20 04:23:27;;;;;;;14.33;4.50;;;23.40;51.20;;;;;;4986995;28;20936;-62
2022/06/20 04:26:10;;;;;;;12.13;4.30;;;23.30;50.60;;;;;;4958566;28;20441;-65
2022/06/20 04:29:03;;;;;;;14.83;5.27;;;23.40;50.80;;;;;;4977839;28;20425;-63
2022/06/20 04:32:22;;;;;;;13.23;4.43;;;23.30;50.70;;;;;;4990244;28;20461;-62
2022/06/20 04:35:02;;;;;;;11.63;4.70;;;23.30;50.40;;;;;;4965156;28;20449;-65
2022/06/20 04:37:57;;;;;;;17.23;4.77;;;23.30;50.40;;;;;;4977675;28;20517;-61
2022/06/20 04:40:27;;;;;;;21.20;5.37;;;23.30;50.60;;;;;;4974837;28;21322;-63
2022/06/20 04:43:14;;;;;;;7.17;4.57;;;23.40;50.80;;;;;;4981022;28;20447;-62
2022/06/20 04:45:56;;;;;;;8.30;5.27;;;23.40;50.80;;;;;;4985528;28;20428;-61
2022/06/20 04:48:24;;;;;;;13.90;4.77;;;23.30;50.50;;;;;;4979134;28;20477;-62
2022/06/20 04:51:01;;;;;;;13.27;5.10;;;23.40;50.50;;;;;;4981326;28;20515;-60
2022/06/20 04:53:33;;;;;;;13.23;5.23;;;23.40;50.70;;;;;;4970181;28;20515;-60
2022/06/20 04:56:05;;;;;;;10.13;4.50;;;23.40;50.40;;;;;;4982298;28;20542;-61
2022/06/20 04:58:44;;;;;;;11.40;4.53;;;23.40;51.40;;;;;;4983243;28;20451;-62
2022/06/20 05:01:11;;;;;;;5.93;4.30;;;23.40;51.00;;;;;;4986818;28;20845;-62
2022/06/20 05:03:45;;;;;;;9.70;5.03;;;23.40;51.30;;;;;;4980635;28;20472;-62
2022/06/20 05:06:20;;;;;;;8.47;5.03;;;23.50;50.80;;;;;;4994086;28;20508;-62
2022/06/20 05:08:52;;;;;;;13.60;5.27;;;23.50;50.60;;;;;;4989908;28;20831;-62
2022/06/20 05:11:31;;;;;;;13.83;4.87;;;23.50;50.50;;;;;;4987138;28;20459;-63
2022/06/20 05:14:17;;;;;;;4.33;3.93;;;23.50;50.10;;;;;;4983769;28;20930;-63
2022/06/20 05:16:48;;;;;;;9.23;5.03;;;23.60;49.80;;;;;;4988938;28;20923;-63
2022/06/20 05:19:35;;;;;;;18.23;5.57;;;23.60;49.90;;;;;;4985121;28;20459;-62
2022/06/20 05:22:08;;;;;;;8.57;4.93;;;23.80;49.90;;;;;;4971608;28;20858;-63
2022/06/20 05:24:37;;;;;;;9.20;5.00;;;23.90;49.80;;;;;;4987010;28;21074;-63
2022/06/20 05:27:15;;;;;;;11.60;5.07;;;24.10;49.90;;;;;;4983690;28;21144;-62
2022/06/20 05:29:43;;;;;;;12.17;5.23;;;24.20;49.20;;;;;;4991509;28;20456;-64
2022/06/20 05:32:13;;;;;;;15.13;5.30;;;24.20;49.50;;;;;;4968977;28;20444;-64
2022/06/20 05:34:54;;;;;;;6.67;4.60;;;24.10;49.00;;;;;;4990328;28;20489;-63
2022/06/20 05:37:33;;;;;;;10.80;5.33;;;24.00;49.00;;;;;;4980848;28;20840;-63
2022/06/20 05:40:09;;;;;;;8.10;4.90;;;24.00;49.50;;;;;;4973857;28;20456;-63
2022/06/20 05:42:34;;;;;;;7.50;5.00;;;24.00;49.50;;;;;;4986468;28;20458;-64
2022/06/20 05:45:01;;;;;;;8.17;4.90;;;24.00;48.70;;;;;;4985188;28;20496;-64
2022/06/20 05:47:34;;;;;;;6.97;5.43;;;24.00;49.10;;;;;;4985610;28;20189;-65
2022/06/20 05:50:22;;;;;;;7.93;4.63;;;24.00;48.50;;;;;;4985663;28;20448;-64
2022/06/20 05:52:50;;;;;;;15.73;5.00;;;24.10;48.60;;;;;;4998558;28;21106;-66
2022/06/20 05:55:24;;;;;;;10.87;5.17;;;24.10;49.00;;;;;;4991026;28;20519;-64
2022/06/20 05:57:50;;;;;;;11.70;5.27;;;24.10;48.60;;;;;;4980155;28;20520;-64
2022/06/20 06:00:24;;;;;;;6.60;4.47;;;24.00;48.70;;;;;;4982335;28;20519;-64
2022/06/20 06:02:55;;;;;;;6.70;4.97;;;24.00;49.00;;;;;;5011547;28;20427;-63
2022/06/20 06:05:38;;;;;;;7.73;4.90;;;23.90;49.30;;;;;;4984954;28;20448;-63
2022/06/20 06:08:37;;;;;;;9.83;5.13;;;23.90;50.00;;;;;;4989990;28;20517;-64
2022/06/20 06:11:11;;;;;;;9.87;4.87;;;23.80;50.00;;;;;;4988721;28;20453;-59
2022/06/20 06:13:49;;;;;;;5.40;4.63;;;23.80;49.60;;;;;;4983714;28;20856;-64
2022/06/20 06:19:20;;;;;;;17.30;5.80;;;23.90;49.60;;;;;;4986446;28;21242;-63
2022/06/20 06:21:47;;;;;;;9.13;5.50;;;24.00;49.60;;;;;;4984797;28;20476;-65
2022/06/20 06:24:17;;;;;;;14.77;4.93;;;24.00;49.50;;;;;;4983461;28;20436;-64
2022/06/20 06:26:45;;;;;;;8.90;5.20;;;24.00;49.50;;;;;;4982406;28;20433;-66
2022/06/20 06:29:24;;;;;;;11.70;4.67;;;24.00;49.50;;;;;;4988256;28;20447;-64
2022/06/20 06:31:55;;;;;;;14.80;5.10;;;24.00;49.90;;;;;;4989509;28;20424;-65
2022/06/20 06:35:03;;;;;;;6.80;5.20;;;24.10;49.40;;;;;;4988776;28;20463;-65
2022/06/20 06:37:44;;;;;;;8.40;4.60;;;24.30;49.30;;;;;;4983215;28;20863;-68
2022/06/20 06:40:13;;;;;;;12.50;5.13;;;24.40;48.90;;;;;;5004572;28;20470;-65
2022/06/20 06:42:40;;;;;;;9.77;5.47;;;24.40;48.40;;;;;;4984078;28;20420;-65
2022/06/20 06:45:07;;;;;;;11.37;5.23;;;24.50;48.60;;;;;;4984366;28;20803;-64
2022/06/20 06:47:40;;;;;;;10.80;5.60;;;24.60;48.10;;;;;;4991737;28;20982;-66
2022/06/20 06:50:34;;;;;;;6.53;4.80;;;24.70;48.30;;;;;;4967647;28;20511;-66
2022/06/20 06:53:15;;;;;;;7.10;5.27;;;24.60;47.60;;;;;;4979833;28;20988;-67
2022/06/20 06:55:46;;;;;;;12.33;5.10;;;24.50;48.30;;;;;;4986334;28;20973;-65
2022/06/20 06:58:22;;;;;;;6.50;4.30;;;24.50;48.80;;;;;;4988502;28;20441;-65
2022/06/20 07:01:03;;;;;;;7.43;5.20;;;24.60;49.60;;;;;;4976939;28;20575;-66
2022/06/20 07:03:37;;;;;;;7.87;5.10;;;24.90;49.50;;;;;;5000454;28;20878;-64
2022/06/20 07:06:16;;;;;;;7.40;4.73;;;25.10;48.30;;;;;;4984255;28;20426;-64
2022/06/20 07:08:50;;;;;;;11.77;5.83;;;25.30;48.00;;;;;;4988236;28;20419;-65
2022/06/20 07:11:23;;;;;;;10.80;5.30;;;25.30;47.90;;;;;;4982365;28;20527;-64
2022/06/20 07:14:05;;;;;;;11.30;5.10;;;25.40;47.90;;;;;;4979150;28;20912;-65
2022/06/20 07:16:38;;;;;;;7.57;4.90;;;25.40;47.90;;;;;;4985070;28;20550;-64
2022/06/20 07:19:06;;;;;;;8.00;5.93;;;25.50;48.00;;;;;;4981400;28;20460;-65
2022/06/20 07:21:32;;;;;;;9.07;5.20;;;25.50;47.80;;;;;;4974140;28;21000;-65
2022/06/20 07:24:02;;;;;;;13.00;5.07;;;25.50;48.00;;;;;;4986590;28;20427;-64
2022/06/20 07:26:34;;;;;;;8.00;4.97;;;25.40;47.90;;;;;;4978573;28;20443;-64
2022/06/20 07:29:26;;;;;;;8.10;5.03;;;25.50;47.80;;;;;;4961276;28;20762;-63
2022/06/20 07:31:59;;;;;;;6.93;4.83;;;25.60;47.80;;;;;;4982310;28;20431;-63
2022/06/20 07:34:24;;;;;;;8.97;4.10;;;25.70;47.60;;;;;;4990912;28;20436;-63
2022/06/20 07:36:55;;;;;;;11.03;5.17;;;25.80;47.60;;;;;;4983998;28;20438;-62
2022/06/20 07:39:30;;;;;;;7.93;5.10;;;25.80;46.90;;;;;;4999271;28;20804;-56
2022/06/20 07:42:06;;;;;;;9.73;5.30;;;25.70;47.30;;;;;;4989038;28;20454;-56
2022/06/20 07:44:41;;;;;;;10.00;4.87;;;25.70;48.10;;;;;;4985420;28;20947;-57
2022/06/20 07:47:34;;;;;;;9.80;4.70;;;25.80;48.10;;;;;;5002995;28;20442;-55
2022/06/20 07:50:07;;;;;;;7.20;5.13;;;25.90;46.90;;;;;;4976980;28;20961;-59
2022/06/20 07:53:01;;;;;;;10.93;5.20;;;25.90;46.40;;;;;;4979862;28;21181;-56
2022/06/20 07:55:30;;;;;;;7.80;4.50;;;26.00;46.20;;;;;;4982228;28;20441;-56
2022/06/20 07:58:07;;;;;;;7.07;4.80;;;26.10;46.00;;;;;;4981421;28;20458;-58
2022/06/20 08:00:52;;;;;;;8.67;4.60;;;26.30;46.10;;;;;;4984133;28;20570;-60
2022/06/20 08:03:22;;;;;;;10.93;4.90;;;26.50;45.80;;;;;;4982751;28;20424;-62
2022/06/20 08:06:02;;;;;;;6.60;4.60;;;26.50;45.90;;;;;;4978900;28;20515;-61
2022/06/20 08:08:44;;;;;;;6.93;4.90;;;26.50;45.90;;;;;;4983153;28;20493;-63
2022/06/20 08:11:40;;;;;;;9.47;4.70;;;26.50;45.30;;;;;;4965124;28;20472;-65
2022/06/20 08:14:08;;;;;;;12.70;4.73;;;26.40;44.90;;;;;;4971311;28;20796;-62
2022/06/20 08:16:35;;;;;;;7.53;4.90;;;26.30;44.80;;;;;;4973245;28;20510;-64
2022/06/20 08:19:00;;;;;;;7.73;4.43;;;26.20;45.10;;;;;;4989700;28;20450;-64
2022/06/20 08:21:33;;;;;;;6.87;4.70;;;26.10;44.50;;;;;;4980822;28;20468;-62
2022/06/20 08:24:07;;;;;;;6.80;4.73;;;26.10;44.90;;;;;;4990932;28;20278;-64
2022/06/20 08:26:59;;;;;;;5.67;4.20;;;26.10;45.20;;;;;;5003605;28;20423;-64
2022/06/20 08:29:34;;;;;;;7.27;4.40;;;26.20;44.60;;;;;;4986591;28;20558;-64
2022/06/20 08:32:14;;;;;;;7.27;4.53;;;26.30;45.00;;;;;;4984641;28;20430;-65
2022/06/20 08:34:53;;;;;;;5.57;4.07;;;26.30;44.60;;;;;;4970112;28;20431;-63
2022/06/20 08:37:32;;;;;;;5.60;4.37;;;26.20;43.80;;;;;;4970206;28;20443;-64
2022/06/20 08:40:13;;;;;;;6.20;4.13;;;26.20;44.10;;;;;;4987224;28;20493;-63
2022/06/20 08:43:12;;;;;;;7.20;4.30;;;26.10;44.40;;;;;;4990975;28;20431;-63
2022/06/20 08:45:41;;;;;;;11.90;4.87;;;26.10;44.80;;;;;;4978933;28;20970;-61
2022/06/20 08:48:48;;;;;;;8.63;4.90;;;26.10;44.00;;;;;;4981583;28;20767;-64
2022/06/20 08:51:32;;;;;;;6.57;3.87;;;26.00;43.90;;;;;;4980866;28;21155;-63
2022/06/20 08:54:16;;;;;;;8.63;4.47;;;26.00;43.30;;;;;;4983383;28;20439;-65
2022/06/20 08:56:41;;;;;;;14.57;4.67;;;26.10;43.70;;;;;;4993027;28;20423;-65
2022/06/20 08:59:25;;;;;;;6.30;4.10;;;26.10;43.70;;;;;;4984318;28;20573;-64
2022/06/20 09:02:25;;;;;;;5.60;4.13;;;26.20;43.30;;;;;;4989860;28;20199;-64
2022/06/20 09:05:25;;;;;;;4.30;3.90;;;26.20;43.00;;;;;;4985194;28;20447;-65
2022/06/20 09:08:08;;;;;;;5.77;4.20;;;26.30;42.40;;;;;;4983306;28;20425;-64
2022/06/20 09:10:52;;;;;;;10.60;3.90;;;26.50;42.60;;;;;;4981427;28;20454;-64
2022/06/20 09:13:29;;;;;;;4.93;3.50;;;26.70;42.30;;;;;;4990231;28;20446;-65
2022/06/20 09:16:16;;;;;;;5.10;3.63;;;26.90;41.50;;;;;;4987568;28;20415;-64
2022/06/20 09:18:50;;;;;;;5.43;3.97;;;26.90;41.00;;;;;;4994660;28;20444;-64
2022/06/20 09:21:58;;;;;;;6.73;4.03;;;27.00;41.50;;;;;;4989691;28;20467;-65
2022/06/20 09:24:35;;;;;;;8.37;4.23;;;27.20;42.10;;;;;;4989525;28;20431;-65
2022/06/20 09:27:28;;;;;;;9.87;4.47;;;27.30;41.80;;;;;;4987523;28;20537;-66
2022/06/20 09:30:09;;;;;;;5.67;4.13;;;27.40;41.80;;;;;;5003724;28;20478;-66
2022/06/20 09:32:58;;;;;;;8.60;4.33;;;27.50;41.90;;;;;;5006296;28;20419;-66
2022/06/20 09:35:49;;;;;;;6.07;4.20;;;27.50;42.20;;;;;;4992042;28;20236;-66
2022/06/20 09:38:52;;;;;;;7.10;4.30;;;27.60;42.10;;;;;;4985176;28;20176;-65
2022/06/20 09:41:33;;;;;;;11.37;4.13;;;27.60;42.30;;;;;;4987090;28;20204;-65
2022/06/20 09:44:35;;;;;;;6.70;4.13;;;27.70;41.20;;;;;;4981511;28;20176;-65
2022/06/20 09:47:12;;;;;;;14.13;4.50;;;27.60;40.90;;;;;;4980966;28;20181;-65
2022/06/20 09:49:56;;;;;;;6.67;3.83;;;27.60;40.60;;;;;;4992067;28;20204;-64
2022/06/20 09:53:04;;;;;;;7.00;4.30;;;27.70;41.20;;;;;;4992138;28;20185;-64
2022/06/20 09:56:03;;;;;;;7.40;3.90;;;27.90;40.50;;;;;;4971884;28;20189;-64
2022/06/20 09:59:01;;;;;;;9.67;4.43;;;28.10;41.10;;;;;;4991847;28;20173;-65
2022/06/20 10:01:48;;;;;;;8.73;3.77;;;28.20;40.40;;;;;;4986207;28;20559;-64
2022/06/20 10:04:16;;;;;;;7.80;3.90;;;28.40;40.00;;;;;;4987569;28;20184;-65
2022/06/20 10:06:42;;;;;;;7.13;4.00;;;28.40;39.30;;;;;;4986059;28;20176;-66
2022/06/20 10:09:20;;;;;;;10.03;4.50;;;28.50;39.50;;;;;;4988062;28;20668;-66
2022/06/20 10:11:51;;;;;;;10.90;3.43;;;28.50;40.00;;;;;;4983782;28;20230;-66
2022/06/20 10:14:26;;;;;;;5.23;3.93;;;28.50;39.10;;;;;;4989425;28;20185;-65
2022/06/20 10:17:02;;;;;;;10.17;3.80;;;28.60;39.40;;;;;;4977667;28;20181;-64
2022/06/20 10:19:41;;;;;;;5.80;3.67;;;28.70;39.90;;;;;;4979387;28;20295;-65
2022/06/20 10:22:18;;;;;;;9.13;3.73;;;28.90;38.90;;;;;;4975814;28;20201;-64
2022/06/20 10:25:03;;;;;;;6.88;3.78;;;29.00;38.70;;;;;;4990534;28;20173;-64
2022/06/20 10:27:41;;;;;;;5.88;4.18;;;29.00;38.60;;;;;;4997307;28;20177;-64
2022/06/20 10:30:09;;;;;;;5.10;3.42;;;29.10;38.50;;;;;;4993473;28;20247;-65
2022/06/20 10:32:40;;;;;;;5.38;3.80;;;29.20;38.70;;;;;;4981708;28;20181;-64
2022/06/20 10:35:19;;;;;;;7.57;4.13;;;29.30;38.10;;;;;;4991190;28;20677;-64
2022/06/20 10:38:00;;;;;;;10.30;4.15;;;29.20;37.90;;;;;;4971039;28;20196;-64
2022/06/20 10:40:52;;;;;;;5.63;4.00;;;29.20;38.20;;;;;;4980200;28;20312;-64
2022/06/20 10:43:42;;;;;;;11.27;3.60;;;29.30;37.70;;;;;;4983630;28;20220;-65
2022/06/20 10:46:20;;;;;;;7.60;3.95;;;29.30;37.70;;;;;;4991798;28;20181;-65
2022/06/20 10:49:04;;;;;;;5.13;4.00;;;29.30;37.30;;;;;;4980123;28;20200;-64
2022/06/20 10:51:54;;;;;;;12.55;4.18;;;29.30;38.80;;;;;;4990102;28;20283;-65
2022/06/20 10:54:58;;;;;;;5.07;3.60;;;29.50;39.10;;;;;;4985382;28;20203;-65
2022/06/20 10:57:29;;;;;;;7.63;3.80;;;29.70;38.50;;;;;;5002813;28;20209;-64
2022/06/20 11:00:10;;;;;;;6.72;4.55;;;29.90;38.50;;;;;;4977594;28;20205;-64
2022/06/20 11:02:48;;;;;;;9.98;4.00;;;30.00;38.20;;;;;;4989151;28;20177;-65
2022/06/20 11:05:31;;;;;;;6.18;3.70;;;30.10;37.80;;;;;;4983885;28;20176;-65
2022/06/20 11:08:18;;;;;;;5.43;4.00;;;30.10;36.60;;;;;;4988415;28;20167;-65
2022/06/20 11:11:02;;;;;;;8.38;4.45;;;30.00;36.80;;;;;;4986796;28;20291;-65
2022/06/20 11:13:37;;;;;;;6.93;3.90;;;30.10;37.70;;;;;;4990887;28;20796;-65
2022/06/20 11:16:33;;;;;;;8.50;3.65;;;30.10;36.90;;;;;;4979517;28;21303;-65
2022/06/20 11:19:20;;;;;;;10.63;4.03;;;30.30;36.80;;;;;;4991650;28;20193;-65
2022/06/20 11:22:04;;;;;;;6.38;3.70;;;30.40;36.30;;;;;;4983881;28;20357;-65
2022/06/20 11:24:43;;;;;;;4.85;3.65;;;30.50;36.80;;;;;;4984900;28;20609;-65
2022/06/20 11:27:24;;;;;;;11.25;3.97;;;30.70;36.40;;;;;;4985638;28;20180;-61
2022/06/20 11:30:07;;;;;;;7.65;4.50;;;30.80;36.70;;;;;;4975886;28;20193;-61
2022/06/20 11:33:03;;;;;;;5.15;3.78;;;30.90;36.50;;;;;;4991897;28;20214;-59
2022/06/20 11:35:46;;;;;;;5.65;3.95;;;30.80;36.70;;;;;;4965126;28;20217;-60
2022/06/20 11:38:36;;;;;;;9.93;4.65;;;30.70;36.60;;;;;;4978966;28;20315;-62
2022/06/20 11:41:09;;;;;;;4.90;3.88;;;30.60;36.90;;;;;;4981469;28;20194;-62
2022/06/20 11:43:55;;;;;;;6.25;4.32;;;30.50;37.40;;;;;;4984014;28;20214;-63
2022/06/20 11:46:38;;;;;;;8.98;4.18;;;30.50;36.60;;;;;;5003013;28;20166;-62
2022/06/20 11:49:19;;;;;;;8.82;4.78;;;30.30;36.50;;;;;;4987547;28;20181;-63
2022/06/20 11:52:03;;;;;;;9.65;4.30;;;30.00;36.70;;;;;;4991011;28;20184;-63
2022/06/20 11:54:56;;;;;;;8.20;4.40;;;29.80;38.30;;;;;;4984195;28;20175;-62
2022/06/20 11:57:28;;;;;;;5.97;4.18;;;30.10;38.20;;;;;;4984270;28;20649;-63
2022/06/20 12:00:05;;;;;;;8.20;4.30;;;30.20;36.50;;;;;;4982651;28;20243;-63
2022/06/20 12:02:42;;;;;;;5.05;4.13;;;30.10;37.00;;;;;;4998454;28;20192;-62
2022/06/20 12:05:29;;;;;;;8.55;4.55;;;29.90;37.00;;;;;;4988089;28;20650;-63
2022/06/20 12:08:21;;;;;;;8.30;4.20;;;29.60;37.50;;;;;;4975205;28;20212;-63
2022/06/20 12:11:15;;;;;;;10.23;4.22;;;29.50;38.10;;;;;;4980969;28;20583;-65
2022/06/20 12:13:56;;;;;;;7.22;4.18;;;29.60;38.70;;;;;;4957390;28;20184;-63
2022/06/20 12:16:27;;;;;;;7.20;4.38;;;29.90;37.90;;;;;;4985444;28;20184;-64
2022/06/20 12:24:41;;;;;;;8.25;4.95;;;30.20;37.10;;;;;;4981902;28;20184;-64
2022/06/20 12:27:15;;;;;;;10.20;4.38;;;30.60;37.50;;;;;;4984499;28;20262;-58
2022/06/20 12:29:40;;;;;;;13.57;5.43;;;30.90;37.00;;;;;;4984203;28;20208;-63
2022/06/20 12:32:17;;;;;;;12.52;4.00;;;31.00;36.40;;;;;;4983222;28;20178;-63
2022/06/20 12:35:11;;;;;;;6.35;4.32;;;31.10;36.10;;;;;;4983564;28;20193;-63
2022/06/20 12:37:48;;;;;;;8.63;4.65;;;31.10;35.70;;;;;;4974424;28;20227;-63
2022/06/20 12:40:22;;;;;;;7.25;4.18;;;30.90;35.90;;;;;;4969196;28;20325;-63
2022/06/20 12:43:00;;;;;;;8.00;4.22;;;30.80;36.40;;;;;;4987771;28;20217;-64
2022/06/20 12:45:54;;;;;;;5.53;3.90;;;30.50;36.90;;;;;;4979652;28;20175;-64
2022/06/20 12:48:38;;;;;;;10.30;4.68;;;30.30;37.00;;;;;;4981135;28;20171;-61
2022/06/20 12:51:34;;;;;;;10.57;4.95;;;30.10;38.00;;;;;;4979551;28;20205;-63
2022/06/20 12:54:25;;;;;;;5.30;4.10;;;30.30;38.70;;;;;;4986547;28;20185;-63
2022/06/20 12:57:29;;;;;;;7.10;3.92;;;30.40;37.20;;;;;;4991182;28;20180;-64
2022/06/20 13:00:10;;;;;;;9.10;4.68;;;30.10;36.30;;;;;;4978254;28;20213;-63
2022/06/20 13:02:59;;;;;;;5.13;4.63;;;29.80;37.10;;;;;;4990632;28;20183;-63
2022/06/20 13:05:57;;;;;;;13.73;5.25;;;29.60;37.40;;;;;;4997181;28;20179;-63
2022/06/20 13:08:37;;;;;;;7.70;6.05;;;29.50;41.60;;;;;;4970266;28;20670;-63
2022/06/20 13:11:24;;;;;;;14.05;5.82;;;29.20;43.40;;;;;;4985545;28;20771;-63
2022/06/20 13:14:14;;;;;;;13.05;6.03;;;28.90;44.50;;;;;;4990963;28;20207;-59
2022/06/20 13:17:10;;;;;;;13.80;6.20;;;28.60;46.00;;;;;;4989988;28;20184;-58
2022/06/20 13:19:57;;;;;;;9.05;6.25;;;28.30;47.50;;;;;;4982769;28;20346;-58
2022/06/20 13:22:35;;;;;;;11.73;6.25;;;28.40;48.00;;;;;;4980586;28;20254;-58
2022/06/20 13:25:10;;;;;;;9.07;5.75;;;28.30;48.20;;;;;;4984357;28;20654;-57
2022/06/20 13:27:54;;;;;;;9.73;6.03;;;28.30;48.50;;;;;;4989523;28;20238;-59
2022/06/20 13:30:51;;;;;;;7.45;5.45;;;28.80;48.30;;;;;;4987790;28;20208;-59
2022/06/20 13:33:50;;;;;;;10.95;5.63;;;29.30;47.60;;;;;;4986709;28;20190;-58
2022/06/20 13:36:47;;;;;;;9.85;5.30;;;29.80;47.60;;;;;;4979435;28;20184;-59
2022/06/20 13:39:18;;;;;;;10.13;5.28;;;30.10;46.60;;;;;;4990496;28;20187;-58
2022/06/20 13:42:05;;;;;;;7.70;5.75;;;30.30;45.80;;;;;;4988085;28;20235;-58
2022/06/20 13:44:58;;;;;;;15.15;5.55;;;30.40;46.40;;;;;;4988866;28;20568;-59
2022/06/20 13:47:29;;;;;;;11.43;5.07;;;30.50;44.90;;;;;;4989853;28;20256;-59
2022/06/20 13:50:26;;;;;;;9.20;4.88;;;30.60;44.70;;;;;;4987801;28;20200;-59